createdAt,value
2023-03-11T00:04:50.598Z,1.15
2023-03-11T00:09:52.213Z,1.45
2023-03-11T00:14:53.826Z,2.30
2023-03-11T00:19:55.456Z,2.10
2023-03-11T00:24:57.079Z,2.20
2023-03-11T00:29:58.672Z,1.98
2023-03-11T00:35:00.839Z,1.90
2023-03-11T00:40:02.955Z,1.80
2023-03-11T00:45:04.998Z,1.40
2023-03-11T00:50:08.014Z,2.35
2023-03-11T00:55:11.291Z,3.22
2023-03-11T01:00:18.205Z,1.90
2023-03-11T01:05:22.628Z,1.90
2023-03-11T01:10:24.475Z,1.60
2023-03-11T01:15:31.656Z,2.00
2023-03-11T01:20:35.342Z,1.75
2023-03-11T01:25:37.096Z,1.45
2023-03-11T01:30:41.415Z,1.58
2023-03-11T01:35:43.928Z,2.45
2023-03-11T01:40:48.582Z,2.33
2023-03-11T01:45:51.761Z,1.58
2023-03-11T01:50:57.920Z,1.23
2023-03-11T01:56:01.478Z,1.42
2023-03-11T02:01:04.209Z,1.45
2023-03-11T02:06:10.256Z,1.40
2023-03-11T02:11:19.541Z,1.50
2023-03-11T02:16:21.776Z,2.20
2023-03-11T02:21:29.465Z,1.52
2023-03-11T02:26:40.731Z,1.83
2023-03-11T02:31:44.045Z,1.75
2023-03-11T02:36:47.461Z,1.90
2023-03-11T02:41:50.182Z,1.73
2023-03-11T02:46:53.192Z,2.00
2023-03-11T02:51:56.253Z,1.58
2023-03-11T02:56:58.474Z,1.98
2023-03-11T03:02:03.752Z,2.42
2023-03-11T03:07:06.607Z,2.20
2023-03-11T03:12:08.290Z,2.47
2023-03-11T03:17:11.563Z,3.97
2023-03-11T03:22:14.268Z,3.88
2023-03-11T03:27:16.794Z,4.35
2023-03-11T03:32:18.614Z,4.20
2023-03-11T03:37:20.664Z,4.60
2023-03-11T03:42:25.233Z,4.22
2023-03-11T03:47:27.357Z,5.25
2023-03-11T03:52:29.130Z,5.95
2023-03-11T03:57:31.200Z,5.65
2023-03-11T04:02:32.983Z,6.03
2023-03-11T04:07:36.454Z,6.70
2023-03-11T04:12:40.238Z,8.07
2023-03-11T04:17:43.292Z,8.40
2023-03-11T04:22:44.890Z,6.88
2023-03-11T04:27:50.018Z,6.20
2023-03-11T04:32:52.247Z,6.75
2023-03-11T04:37:53.955Z,7.10
2023-03-11T04:42:56.742Z,9.52
2023-03-11T04:47:59.106Z,7.53
2023-03-11T04:53:01.395Z,9.93
2023-03-11T04:58:04.162Z,8.68
2023-03-11T05:03:06.243Z,8.32
2023-03-11T05:08:08.286Z,7.28
2023-03-11T05:13:10.667Z,7.75
2023-03-11T05:18:15.146Z,7.93
2023-03-11T05:23:17.034Z,7.63
2023-03-11T05:28:18.751Z,7.03
2023-03-11T05:33:25.092Z,7.55
2023-03-11T05:38:27.921Z,8.45
2023-03-11T05:43:29.817Z,9.23
2023-03-11T05:48:31.638Z,6.43
2023-03-11T05:53:33.363Z,8.88
2023-03-11T05:58:35.245Z,9.50
2023-03-11T06:03:39.445Z,10.20
2023-03-11T06:08:46.036Z,10.65
2023-03-11T06:13:47.845Z,10.88
2023-03-11T06:18:49.699Z,10.68
2023-03-11T06:23:51.457Z,10.45
2023-03-11T06:28:53.673Z,9.27
2023-03-11T06:33:56.115Z,9.77
2023-03-11T06:38:58.327Z,11.20
2023-03-11T06:44:01.676Z,9.82
2023-03-11T06:49:03.834Z,10.60
2023-03-11T06:54:06.814Z,10.43
2023-03-11T06:59:09.090Z,11.52
2023-03-11T07:04:11.004Z,11.80
2023-03-11T07:09:15.422Z,10.82
2023-03-11T07:14:19.866Z,11.35
2023-03-11T07:19:26.183Z,11.90
2023-03-11T07:24:27.808Z,10.57
2023-03-11T07:29:29.426Z,10.93
2023-03-11T07:34:31.049Z,11.60
2023-03-11T07:39:32.692Z,8.43
2023-03-11T07:44:34.472Z,11.82
2023-03-11T07:49:36.111Z,11.55
2023-03-11T07:54:37.772Z,12.50
2023-03-11T07:59:39.393Z,13.85
2023-03-11T08:04:41.063Z,15.68
2023-03-11T08:09:42.728Z,11.40
2023-03-11T08:14:44.382Z,12.95
2023-03-11T08:19:46.019Z,10.70
2023-03-11T08:24:51.907Z,10.65
2023-03-11T08:29:53.538Z,11.18
2023-03-11T08:34:55.248Z,10.85
2023-03-11T08:39:57.313Z,11.48
2023-03-11T08:44:58.978Z,10.82
2023-03-11T08:50:00.647Z,10.10
2023-03-11T08:55:02.530Z,10.80
2023-03-11T09:00:07.218Z,9.93
2023-03-11T09:05:09.697Z,10.10
2023-03-11T09:10:16.571Z,9.35
2023-03-11T09:15:18.265Z,8.60
2023-03-11T09:20:20.449Z,9.40
2023-03-11T09:25:22.105Z,10.05
2023-03-11T09:30:23.778Z,9.88
2023-03-11T09:35:25.478Z,9.45
2023-03-11T09:40:32.823Z,10.13
2023-03-11T09:45:39.518Z,10.63
2023-03-11T09:50:53.755Z,8.35
2023-03-11T09:55:58.296Z,8.70
2023-03-11T10:01:00.764Z,8.88
2023-03-11T10:06:15.680Z,8.50
2023-03-11T10:11:23.973Z,8.32
2023-03-11T10:16:38.601Z,8.00
2023-03-11T10:21:59.313Z,9.88
2023-03-11T10:27:06.734Z,8.00
2023-03-11T10:32:42.471Z,9.57
2023-03-11T10:37:51.803Z,10.07
2023-03-11T10:42:57.516Z,9.70
2023-03-11T10:47:59.194Z,9.98
2023-03-11T10:53:10.784Z,8.48
2023-03-11T10:58:15.878Z,9.10
2023-03-11T11:03:23.721Z,9.45
2023-03-11T11:08:25.496Z,7.60
2023-03-11T11:13:34.503Z,8.75
2023-03-11T11:18:49.414Z,9.07
2023-03-11T11:24:24.197Z,7.97
2023-03-11T11:29:25.820Z,6.55
2023-03-11T11:34:35.022Z,6.43
2023-03-11T11:39:51.792Z,5.63
2023-03-11T11:45:00.438Z,6.38
2023-03-11T11:50:07.028Z,6.45
2023-03-11T11:55:20.787Z,6.15
2023-03-11T12:00:45.929Z,5.72
2023-03-11T12:06:00.293Z,5.28
2023-03-11T12:11:06.368Z,5.03
2023-03-11T12:16:14.106Z,5.25
2023-03-11T12:21:44.186Z,5.25
2023-03-11T12:26:49.255Z,4.60
2023-03-11T12:31:51.746Z,5.03
2023-03-11T12:36:55.694Z,6.40
2023-03-11T12:42:21.288Z,5.93
2023-03-11T12:47:25.099Z,6.05
2023-03-11T12:52:28.635Z,6.43
2023-03-11T12:57:40.108Z,6.20
2023-03-11T13:03:00.604Z,5.50
2023-03-11T13:08:17.717Z,5.97
2023-03-11T13:13:26.374Z,4.95
2023-03-11T13:18:30.611Z,5.15
2023-03-11T13:23:37.825Z,5.15
2023-03-11T13:29:31.176Z,4.90
2023-03-11T13:35:01.626Z,4.50
2023-03-11T13:40:15.992Z,4.30
2023-03-11T13:45:35.836Z,4.88
2023-03-11T13:50:41.736Z,4.05
2023-03-11T13:55:47.023Z,3.72
2023-03-11T14:00:51.710Z,4.00
2023-03-11T14:06:00.634Z,4.28
2023-03-11T14:11:12.142Z,4.28
2023-03-11T14:16:20.293Z,4.43
2023-03-11T14:21:23.089Z,4.85
2023-03-11T14:26:29.566Z,6.00
2023-03-11T14:31:33.979Z,4.28
2023-03-11T14:36:44.686Z,4.38
2023-03-11T14:41:46.491Z,4.28
2023-03-11T14:46:49.798Z,4.10
2023-03-11T14:52:01.482Z,5.32
2023-03-11T14:57:18.199Z,4.15
2023-03-11T15:02:50.936Z,4.60
2023-03-11T15:07:59.241Z,4.60
2023-03-11T15:13:10.485Z,5.22
2023-03-11T15:18:23.598Z,4.30
2023-03-11T15:23:25.245Z,4.35
2023-03-11T15:28:32.169Z,4.32
2023-03-11T15:33:34.272Z,4.35
2023-03-11T15:38:35.889Z,4.80
2023-03-11T15:43:48.524Z,4.78
2023-03-11T15:48:50.186Z,3.95
2023-03-11T15:53:51.804Z,4.60
2023-03-11T15:58:53.419Z,4.85
2023-03-11T16:03:55.949Z,5.20
2023-03-11T16:08:57.567Z,5.13
2023-03-11T16:13:59.718Z,5.20
2023-03-11T16:19:01.365Z,5.18
2023-03-11T16:24:04.681Z,5.68
2023-03-11T16:29:18.601Z,4.78
2023-03-11T16:34:21.364Z,5.53
2023-03-11T16:39:22.962Z,6.20
2023-03-11T16:44:24.608Z,6.32
2023-03-11T16:49:26.252Z,6.30
2023-03-11T16:54:27.869Z,5.65
2023-03-11T16:59:30.112Z,6.35
2023-03-11T17:04:31.891Z,5.50
2023-03-11T17:09:35.558Z,6.38
2023-03-11T17:14:37.198Z,7.30
2023-03-11T17:19:38.877Z,6.10
2023-03-11T17:24:40.624Z,7.50
2023-03-11T17:29:42.232Z,6.93
2023-03-11T17:34:43.917Z,6.82
2023-03-11T17:39:45.594Z,7.32
2023-03-11T17:44:51.857Z,7.10
2023-03-11T17:49:54.336Z,7.00
2023-03-11T17:54:56.633Z,7.55
2023-03-11T18:00:04.189Z,7.68
2023-03-11T18:05:07.112Z,8.30
2023-03-11T18:10:09.839Z,8.45
2023-03-11T18:15:18.248Z,7.13
2023-03-11T18:20:20.442Z,7.35
2023-03-11T18:25:22.050Z,7.00
2023-03-11T18:30:23.871Z,6.38
2023-03-11T18:35:25.466Z,7.10
2023-03-11T18:40:27.984Z,6.70
2023-03-11T18:45:29.736Z,7.95
2023-03-11T18:50:31.355Z,6.88
2023-03-11T18:55:35.437Z,8.70
2023-03-11T19:00:37.137Z,9.07
2023-03-11T19:05:38.766Z,8.98
2023-03-11T19:10:42.378Z,9.57
2023-03-11T19:15:44.016Z,8.48
2023-03-11T19:20:45.624Z,8.00
2023-03-11T19:26:00.692Z,8.05
2023-03-11T19:31:05.483Z,8.90
2023-03-11T19:36:08.498Z,8.70
2023-03-11T19:41:19.016Z,8.60
2023-03-11T19:46:22.314Z,8.20
2023-03-11T19:51:26.663Z,8.38
2023-03-11T19:56:30.054Z,8.00
2023-03-11T20:01:31.763Z,7.83
2023-03-11T20:06:33.509Z,8.15
2023-03-11T20:11:39.708Z,7.77
2023-03-11T20:16:41.552Z,6.35
2023-03-11T20:21:45.712Z,6.38
2023-03-11T20:26:50.046Z,6.93
2023-03-11T20:31:53.015Z,6.57
2023-03-11T20:36:54.774Z,6.75
2023-03-11T20:41:56.383Z,8.30
2023-03-11T20:46:58.049Z,9.10
2023-03-11T20:52:01.267Z,10.40
2023-03-11T20:57:02.994Z,8.02
2023-03-11T21:02:06.499Z,9.10
2023-03-11T21:07:08.278Z,9.57
2023-03-11T21:12:09.946Z,8.47
2023-03-11T21:17:11.760Z,8.10
2023-03-11T21:22:13.561Z,8.50
2023-03-11T21:27:15.283Z,8.93
2023-03-11T21:32:16.994Z,8.82
2023-03-11T21:37:18.713Z,8.30
2023-03-11T21:42:20.848Z,8.70
2023-03-11T21:47:22.467Z,9.18
2023-03-11T21:52:24.059Z,8.65
2023-03-11T21:57:25.799Z,8.27
2023-03-11T22:02:27.496Z,7.20
2023-03-11T22:07:29.122Z,7.80
2023-03-11T22:12:30.780Z,8.13
2023-03-11T22:17:32.434Z,6.82
2023-03-11T22:22:34.128Z,8.32
2023-03-11T22:27:36.137Z,7.18
2023-03-11T22:32:37.817Z,7.35
2023-03-11T22:37:39.418Z,6.32
2023-03-11T22:42:41.122Z,5.45
2023-03-11T22:47:42.711Z,6.55
2023-03-11T22:52:44.315Z,5.97
2023-03-11T22:57:45.961Z,5.70
2023-03-11T23:02:49.407Z,6.22
2023-03-11T23:07:51.566Z,4.78
2023-03-11T23:12:53.193Z,4.68
2023-03-11T23:17:54.820Z,5.23
2023-03-11T23:22:56.456Z,7.97
2023-03-11T23:27:58.070Z,5.57
2023-03-11T23:33:02.526Z,5.13
2023-03-11T23:38:04.116Z,5.03
2023-03-11T23:43:05.819Z,4.03
2023-03-11T23:48:07.441Z,4.30
2023-03-11T23:53:09.053Z,4.25
2023-03-11T23:58:10.843Z,4.32
